Observation data for Friona on 11/15/2019      Previous  Date       Current Mesonet Observations  Soil Data  Daily Summary Page  Observations in Plain Language
KFAS 150600Z 21010KT 02/M02 A3041 RMK A01 T00161024  RH  075%=      5-min Rain = 0
KFAS 150605Z 21010KT 02/M02 A3042 RMK A01 T00151024  RH  076%=      5-min Rain = 0
KFAS 150610Z 21010KT 02/M02 A3041 RMK A01 T00151024  RH  076%=      5-min Rain = 0
KFAS 150615Z 21010KT 02/M03 A3041 RMK A01 T00161025  RH  075%=      5-min Rain = 0
KFAS 150620Z 21009KT 01/M03 A3041 RMK A01 T00141025  RH  075%=      5-min Rain = 0
KFAS 150625Z 20009KT 01/M03 A3041 RMK A01 T00091028  RH  077%=      5-min Rain = 0
KFAS 150630Z 20009KT 00/M03 A3041 RMK A01 T00031030  RH  079%=      5-min Rain = 0
KFAS 150635Z 21009KT 00/M03 A3041 RMK A01 T00021029  RH  080%=      5-min Rain = 0
KFAS 150640Z 21009KT 00/03 A3041 RMK A01 T00000-30  RH  080%=      5-min Rain = 0
KFAS 150645Z 21009KT 00/M03 A3041 RMK A01 T00011029  RH  081%=      5-min Rain = 0
KFAS 150650Z 20010KT 00/M03 A3041 RMK A01 T00041027  RH  080%=      5-min Rain = 0
KFAS 150655Z 20009KT 00/M03 A3041 RMK A01 T00031028  RH  080%=      5-min Rain = 0
KFAS 150700Z 20011KT 00/M03 A3041 RMK A01 T00031028  RH  081%=      5-min Rain = 0
KFAS 150705Z 21011KT 01/M03 A304 RMK A01 T00051026  RH  080%=      5-min Rain = 0
KFAS 150710Z 21011KT 01/M03 A304 RMK A01 T00091025  RH  079%=      5-min Rain = 0
KFAS 150715Z 21011KT 01/M03 A304 RMK A01 T00111025  RH  077%=      5-min Rain = 0
KFAS 150720Z 21010KT 01/M03 A304 RMK A01 T00111025  RH  077%=      5-min Rain = 0
KFAS 150725Z 21009KT 01/M03 A304 RMK A01 T00091026  RH  078%=      5-min Rain = 0
KFAS 150730Z 21009KT 01/M03 A304 RMK A01 T00071027  RH  079%=      5-min Rain = 0
KFAS 150735Z 20009KT 01/M03 A3039 RMK A01 T00051027  RH  080%=      5-min Rain = 0
KFAS 150740Z 20008KT 00/M03 A3039 RMK A01 T00011030  RH  081%=      5-min Rain = 0
KFAS 150745Z 20008KT M01/M03 A3039 RMK A01 T10051033  RH  082%=      5-min Rain = 0
KFAS 150750Z 20009KT M01/M04 A3039 RMK A01 T10111035  RH  085%=      5-min Rain = 0
KFAS 150755Z 20009KT M01/M03 A3039 RMK A01 T10111033  RH  086%=      5-min Rain = 0
KFAS 150800Z 21008KT M01/M03 A3039 RMK A01 T10101032  RH  085%=      5-min Rain = 0
KFAS 150805Z 21008KT M01/M03 A3039 RMK A01 T10101033  RH  085%=      5-min Rain = 0
KFAS 150810Z 21008KT M01/M03 A3039 RMK A01 T10111033  RH  085%=      5-min Rain = 0
KFAS 150815Z 21007KT M01/M03 A3039 RMK A01 T10111034  RH  085%=      5-min Rain = 0
KFAS 150820Z 21007KT M01/M04 A3039 RMK A01 T10141036  RH  085%=      5-min Rain = 0
KFAS 150825Z 22008KT M02/M04 A3039 RMK A01 T10161037  RH  086%=      5-min Rain = 0
KFAS 150830Z 22008KT M01/M03 A3039 RMK A01 T10141033  RH  087%=      5-min Rain = 0
KFAS 150835Z 22007KT M01/M03 A3039 RMK A01 T10111032  RH  086%=      5-min Rain = 0
KFAS 150840Z 23007KT M01/M03 A3039 RMK A01 T10131034  RH  086%=      5-min Rain = 0
KFAS 150845Z 22007KT M01/M03 A3038 RMK A01 T10141034  RH  087%=      5-min Rain = 0
KFAS 150850Z 22007KT M01/M03 A3038 RMK A01 T10131033  RH  087%=      5-min Rain = 0
KFAS 150855Z 21006KT M01/M03 A3038 RMK A01 T10111032  RH  086%=      5-min Rain = 0
KFAS 150900Z 21007KT M02/M04 A3038 RMK A01 T10161038  RH  086%=      5-min Rain = 0
KFAS 150905Z 21007KT M02/M04 A3037 RMK A01 T10181035  RH  088%=      5-min Rain = 0
KFAS 150910Z 21008KT M02/M03 A3037 RMK A01 T10161034  RH  088%=      5-min Rain = 0
KFAS 150915Z 21008KT M02/M03 A3037 RMK A01 T10151034  RH  088%=      5-min Rain = 0
KFAS 150920Z 21008KT M01/M03 A3037 RMK A01 T10141033  RH  088%=      5-min Rain = 0
KFAS 150925Z 21007KT M01/M03 A3037 RMK A01 T10131032  RH  087%=      5-min Rain = 0
KFAS 150930Z 21007KT M01/M03 A3037 RMK A01 T10101030  RH  087%=      5-min Rain = 0
KFAS 150935Z 21008KT M01/M03 A3037 RMK A01 T10101031  RH  086%=      5-min Rain = 0
KFAS 150940Z 21007KT M01/M03 A3037 RMK A01 T10101032  RH  086%=      5-min Rain = 0
KFAS 150945Z 22007KT M01/M03 A3037 RMK A01 T10111032  RH  086%=      5-min Rain = 0
KFAS 150950Z 22007KT M01/M03 A3037 RMK A01 T10091030  RH  086%=      5-min Rain = 0
KFAS 150955Z 22007KT M01/M03 A3037 RMK A01 T10101032  RH  086%=      5-min Rain = 0
KFAS 151000Z 21006KT M01/M03 A3037 RMK A01 T10131034  RH  086%=      5-min Rain = 0
KFAS 151005Z 22007KT M01/M03 A3036 RMK A01 T10141034  RH  087%=      5-min Rain = 0
KFAS 151010Z 22006KT M02/M04 A3036 RMK A01 T10171037  RH  087%=      5-min Rain = 0
KFAS 151015Z 22006KT M02/M04 A3036 RMK A01 T10211039  RH  088%=      5-min Rain = 0
KFAS 151020Z 22007KT M02/M04 A3036 RMK A01 T10241040  RH  089%=      5-min Rain = 0
KFAS 151025Z 21007KT M03/M04 A3035 RMK A01 T10251040  RH  090%=      5-min Rain = 0
KFAS 151030Z 22007KT M03/M04 A3035 RMK A01 T10261041  RH  090%=      5-min Rain = 0
KFAS 151035Z 23006KT M03/M04 A3035 RMK A01 T10281042  RH  090%=      5-min Rain = 0
KFAS 151040Z 23005KT M03/M04 A3035 RMK A01 T10301043  RH  091%=      5-min Rain = 0
KFAS 151045Z 24005KT M03/M04 A3035 RMK A01 T10291041  RH  092%=      5-min Rain = 0
KFAS 151050Z 23007KT M02/M04 A3035 RMK A01 T10241036  RH  092%=      5-min Rain = 0
KFAS 151055Z 22007KT M02/M03 A3035 RMK A01 T10151029  RH  091%=      5-min Rain = 0
KFAS 151100Z 21005KT M01/M03 A3035 RMK A01 T10141033  RH  087%=      5-min Rain = 0
KFAS 151105Z 21006KT M02/M04 A3035 RMK A01 T10211040  RH  087%=      5-min Rain = 0
KFAS 151110Z 21007KT M02/M04 A3035 RMK A01 T10241039  RH  090%=      5-min Rain = 0
KFAS 151115Z 21008KT M02/M03 A3035 RMK A01 T10211034  RH  091%=      5-min Rain = 0
KFAS 151120Z 20008KT M02/M03 A3035 RMK A01 T10151029  RH  091%=      5-min Rain = 0
KFAS 151125Z 21008KT M01/M03 A3035 RMK A01 T10111028  RH  089%=      5-min Rain = 0
KFAS 151130Z 21008KT M01/M03 A3035 RMK A01 T10091027  RH  088%=      5-min Rain = 0
KFAS 151135Z 21008KT M01/M03 A3035 RMK A01 T10051025  RH  087%=      5-min Rain = 0
KFAS 151140Z 21007KT M00/M03 A3035 RMK A01 T10041026  RH  086%=      5-min Rain = 0
KFAS 151145Z 21007KT M01/M03 A3035 RMK A01 T10071028  RH  086%=      5-min Rain = 0
KFAS 151150Z 22007KT M01/M03 A3035 RMK A01 T10061027  RH  087%=      5-min Rain = 0
KFAS 151155Z 22009KT 00/M02 A3035 RMK A01 T00021020  RH  086%=      5-min Rain = 0
KFAS 151200Z 22011KT 01/M02 A3034 RMK A01 T00121017  RH  082%=      5-min Rain = 0
KFAS 151205Z 22011KT 02/M02 A3034 RMK A01 T00171017  RH  079%=      5-min Rain = 0
KFAS 151210Z 22010KT 02/M02 A3034 RMK A01 T00171018  RH  078%=      5-min Rain = 0
KFAS 151215Z 22011KT 02/M02 A3034 RMK A01 T00171018  RH  078%=      5-min Rain = 0
KFAS 151220Z 22012KT 02/M02 A3034 RMK A01 T00181018  RH  078%=      5-min Rain = 0
KFAS 151225Z 23011KT 02/M02 A3034 RMK A01 T00191018  RH  077%=      5-min Rain = 0
KFAS 151230Z 23012KT 02/M02 A3034 RMK A01 T00191019  RH  077%=      5-min Rain = 0
KFAS 151235Z 23012KT 02/M02 A3034 RMK A01 T00181019  RH  077%=      5-min Rain = 0
KFAS 151240Z 23013KT 02/M02 A3034 RMK A01 T00191019  RH  077%=      5-min Rain = 0
KFAS 151245Z 23013KT 02/M02 A3034 RMK A01 T00191019  RH  076%=      5-min Rain = 0
KFAS 151250Z 23012G18KT 02/M02 A3034 RMK A01 T00201019  RH  076%=      5-min Rain = 0
KFAS 151255Z 23011KT 02/M02 A3034 RMK A01 T00181020  RH  076%=      5-min Rain = 0
KFAS 151300Z 22011KT 02/M02 A3034 RMK A01 T00171020  RH  077%=      5-min Rain = 0
KFAS 151305Z 22011KT 02/M02 A3034 RMK A01 T00171020  RH  077%=      5-min Rain = 0
KFAS 151310Z 22011KT 02/M02 A3034 RMK A01 T00181019  RH  077%=      5-min Rain = 0
KFAS 151315Z 22011KT 02/M02 A3034 RMK A01 T00181019  RH  077%=      5-min Rain = 0
KFAS 151320Z 22012KT 02/M02 A3034 RMK A01 T00181019  RH  077%=      5-min Rain = 0
KFAS 151325Z 22010KT 02/M02 A3034 RMK A01 T00181019  RH  077%=      5-min Rain = 0
KFAS 151330Z 22010KT 02/M02 A3034 RMK A01 T00181019  RH  077%=      5-min Rain = 0
KFAS 151335Z 22011KT 02/M02 A3034 RMK A01 T00201018  RH  077%=      5-min Rain = 0
KFAS 151340Z 22011KT 02/M02 A3034 RMK A01 T00221018  RH  076%=      5-min Rain = 0
KFAS 151345Z 22010G15KT 02/M02 A3034 RMK A01 T00221018  RH  076%=      5-min Rain = 0
KFAS 151350Z 22010KT 02/M02 A3034 RMK A01 T00231017  RH  076%=      5-min Rain = 0
KFAS 151355Z 22011KT 02/M02 A3034 RMK A01 T00241017  RH  076%=      5-min Rain = 0
KFAS 151400Z 22011KT 02/M02 A3034 RMK A01 T00241016  RH  075%=      5-min Rain = 0
KFAS 151405Z 22011KT 03/M02 A3034 RMK A01 T00251016  RH  075%=      5-min Rain = 0
KFAS 151410Z 22011KT 03/M02 A3034 RMK A01 T00271016  RH  074%=      5-min Rain = 0
KFAS 151415Z 22011KT 03/M02 A3034 RMK A01 T00281015  RH  074%=      5-min Rain = 0
KFAS 151420Z 22012KT 03/M01 A3034 RMK A01 T00311014  RH  073%=      5-min Rain = 0
KFAS 151425Z 22014KT 03/M01 A3034 RMK A01 T00341014  RH  071%=      5-min Rain = 0
KFAS 151430Z 22013KT 04/M01 A3033 RMK A01 T00381012  RH  071%=      5-min Rain = 0
KFAS 151435Z 23013G18KT 04/M01 A3033 RMK A01 T00421011  RH  069%=      5-min Rain = 0
KFAS 151440Z 23016G21KT 04/M01 A3033 RMK A01 T00441011  RH  068%=      5-min Rain = 0
KFAS 151445Z 23015KT 05/M01 A3034 RMK A01 T00471010  RH  067%=      5-min Rain = 0
KFAS 151450Z 23016G21KT 05/M01 A3034 RMK A01 T00491010  RH  066%=      5-min Rain = 0
KFAS 151455Z 23015KT 05/M01 A3034 RMK A01 T00511009  RH  066%=      5-min Rain = 0
KFAS 151500Z 23014KT 05/M01 A3034 RMK A01 T00541008  RH  065%=      5-min Rain = 0
KFAS 151505Z 23012KT 06/M01 A3034 RMK A01 T00571006  RH  064%=      5-min Rain = 0
KFAS 151510Z 22011KT 06/M01 A3034 RMK A01 T00601005  RH  064%=      5-min Rain = 0
KFAS 151515Z 22011KT 06/M00 A3034 RMK A01 T00631003  RH  064%=      5-min Rain = 0
KFAS 151520Z 22013G18KT 07/M00 A3034 RMK A01 T00651003  RH  062%=      5-min Rain = 0
KFAS 151525Z 22014KT 07/M00 A3033 RMK A01 T00681003  RH  061%=      5-min Rain = 0
KFAS 151530Z 22015G22KT 07/M00 A3033 RMK A01 T00701003  RH  060%=      5-min Rain = 0
KFAS 151535Z 22017G22KT 07/M00 A3033 RMK A01 T00721003  RH  059%=      5-min Rain = 0
KFAS 151540Z 22015KT 08/M00 A3033 RMK A01 T00761001  RH  059%=      5-min Rain = 0
KFAS 151545Z 22015G20KT 08/00 A3033 RMK A01 T00800000  RH  058%=      5-min Rain = 0
KFAS 151550Z 21016G21KT 08/00 A3033 RMK A01 T008300-0  RH  056%=      5-min Rain = 0
KFAS 151555Z 21017KT 08/00 A3033 RMK A01 T008400-0  RH  056%=      5-min Rain = 0
KFAS 151600Z 21015G20KT 09/00 A3033 RMK A01 T00880001  RH  055%=      5-min Rain = 0
KFAS 151605Z 21015G21KT 09/00 A3033 RMK A01 T00920002  RH  054%=      5-min Rain = 0
KFAS 151610Z 21016KT 10/00 A3033 RMK A01 T00960002  RH  052%=      5-min Rain = 0
KFAS 151615Z 21015KT 10/00 A3033 RMK A01 T00970001  RH  052%=      5-min Rain = 0
KFAS 151620Z 21016G21KT 10/00 A3033 RMK A01 T010000-0  RH  050%=      5-min Rain = 0
KFAS 151625Z 21017KT 10/M00 A3033 RMK A01 T01021003  RH  049%=      5-min Rain = 0
KFAS 151630Z 21016KT 11/M00 A3033 RMK A01 T01051004  RH  047%=      5-min Rain = 0
KFAS 151635Z 21016KT 11/M01 A3033 RMK A01 T01091005  RH  046%=      5-min Rain = 0
KFAS 151640Z 21015G20KT 11/M01 A3032 RMK A01 T01121006  RH  045%=      5-min Rain = 0
KFAS 151645Z 21016G21KT 11/M01 A3032 RMK A01 T01141009  RH  043%=      5-min Rain = 0
KFAS 151650Z 21017KT 12/M01 A3032 RMK A01 T01151008  RH  043%=      5-min Rain = 0
KFAS 151655Z 20018G24KT 12/M01 A3032 RMK A01 T01181013  RH  041%=      5-min Rain = 0
KFAS 151700Z 20019KT 12/M02 A3032 RMK A01 T01171020  RH  039%=      5-min Rain = 0
KFAS 151705Z 21018KT 12/M02 A3032 RMK A01 T01181018  RH  039%=      5-min Rain = 0
KFAS 151710Z 20017G22KT 12/M02 A3032 RMK A01 T01181015  RH  040%=      5-min Rain = 0
KFAS 151715Z 20018KT 12/M02 A3031 RMK A01 T01201017  RH  039%=      5-min Rain = 0
KFAS 151720Z 21018KT 12/M02 A3031 RMK A01 T01211018  RH  038%=      5-min Rain = 0
KFAS 151725Z 21019G25KT 12/M02 A3031 RMK A01 T01231024  RH  036%=      5-min Rain = 0
KFAS 151730Z 21017G22KT 13/M02 A3031 RMK A01 T01281020  RH  036%=      5-min Rain = 0
KFAS 151735Z 21019G24KT 13/M02 A3031 RMK A01 T01261021  RH  036%=      5-min Rain = 0
KFAS 151740Z 21020KT 13/M02 A303 RMK A01 T01271024  RH  035%=      5-min Rain = 0
KFAS 151745Z 21018G23KT 13/M02 A303 RMK A01 T01291022  RH  035%=      5-min Rain = 0
KFAS 151750Z 21019G24KT 13/M02 A303 RMK A01 T01341022  RH  034%=      5-min Rain = 0
KFAS 151755Z 22018KT 13/M02 A303 RMK A01 T01321020  RH  035%=      5-min Rain = 0
KFAS 151800Z 21018G23KT 13/M02 A303 RMK A01 T01341021  RH  034%=      5-min Rain = 0
KFAS 151805Z 21017KT 14/M02 A3029 RMK A01 T01361019  RH  034%=      5-min Rain = 0
KFAS 151810Z 21018KT 14/M02 A3029 RMK A01 T01381021  RH  033%=      5-min Rain = 0
KFAS 151815Z 21016G23KT 14/M02 A3028 RMK A01 T01431020  RH  033%=      5-min Rain = 0
KFAS 151820Z 21016KT 15/M02 A3028 RMK A01 T01481022  RH  031%=      5-min Rain = 0
KFAS 151825Z 21017G23KT 15/M03 A3027 RMK A01 T01501028  RH  029%=      5-min Rain = 0
KFAS 151830Z 21016G21KT 15/M03 A3027 RMK A01 T01541028  RH  029%=      5-min Rain = 0
KFAS 151835Z 20018G24KT 16/M04 A3026 RMK A01 T01591038  RH  026%=      5-min Rain = 0
KFAS 151840Z 21018G23KT 16/M04 A3026 RMK A01 T01611041  RH  025%=      5-min Rain = 0
KFAS 151845Z 20018G23KT 16/M04 A3026 RMK A01 T01621042  RH  024%=      5-min Rain = 0
KFAS 151850Z 20018G23KT 17/M05 A3025 RMK A01 T01651045  RH  024%=      5-min Rain = 0
KFAS 151855Z 21019G24KT 17/M05 A3025 RMK A01 T01661047  RH  023%=      5-min Rain = 0
KFAS 151900Z 21019G26KT 17/M05 A3025 RMK A01 T01651048  RH  023%=      5-min Rain = 0
KFAS 151905Z 20019G25KT 17/M05 A3024 RMK A01 T01661050  RH  022%=      5-min Rain = 0
KFAS 151910Z 20020G27KT 17/M05 A3024 RMK A01 T01671052  RH  022%=      5-min Rain = 0
KFAS 151915Z 20019KT 17/M05 A3024 RMK A01 T01701052  RH  022%=      5-min Rain = 0
KFAS 151920Z 21017G22KT 17/M05 A3023 RMK A01 T01731052  RH  021%=      5-min Rain = 0
KFAS 151925Z 21017G23KT 18/M05 A3023 RMK A01 T01751051  RH  021%=      5-min Rain = 0
KFAS 151930Z 20019KT 18/M05 A3022 RMK A01 T01751051  RH  021%=      5-min Rain = 0
KFAS 151935Z 21016G22KT 17/M05 A3022 RMK A01 T01741052  RH  021%=      5-min Rain = 0
KFAS 151940Z 20019G26KT 17/M05 A3022 RMK A01 T01741054  RH  021%=      5-min Rain = 0
KFAS 151945Z 20019KT 17/M06 A3021 RMK A01 T01741055  RH  021%=      5-min Rain = 0
KFAS 151950Z 20017G23KT 18/M06 A3021 RMK A01 T01761055  RH  020%=      5-min Rain = 0
KFAS 151955Z 21017G22KT 18/M06 A3021 RMK A01 T01771055  RH  020%=      5-min Rain = 0
KFAS 152000Z 20017G23KT 18/M06 A3021 RMK A01 T01781057  RH  020%=      5-min Rain = 0
KFAS 152005Z 20017G23KT 18/M06 A3021 RMK A01 T01781056  RH  020%=      5-min Rain = 0
KFAS 152010Z 21018G23KT 18/M06 A302 RMK A01 T01791056  RH  020%=      5-min Rain = 0
KFAS 152015Z 20017G23KT 18/M06 A302 RMK A01 T01791058  RH  019%=      5-min Rain = 0
KFAS 152020Z 21017G24KT 18/M06 A302 RMK A01 T01811058  RH  019%=      5-min Rain = 0
KFAS 152025Z 20017G23KT 18/M06 A302 RMK A01 T01801059  RH  019%=      5-min Rain = 0
KFAS 152030Z 20017G24KT 18/M06 A302 RMK A01 T01771059  RH  020%=      5-min Rain = 0
KFAS 152035Z 20017G22KT 18/M06 A3019 RMK A01 T01791059  RH  019%=      5-min Rain = 0
KFAS 152040Z 20017G22KT 18/M06 A3019 RMK A01 T01791059  RH  019%=      5-min Rain = 0
KFAS 152045Z 20016G24KT 18/M06 A3019 RMK A01 T01801058  RH  019%=      5-min Rain = 0
KFAS 152050Z 20017KT 18/M06 A3019 RMK A01 T01821059  RH  019%=      5-min Rain = 0
KFAS 152055Z 20017G24KT 18/M06 A3019 RMK A01 T01811058  RH  019%=      5-min Rain = 0
KFAS 152100Z 20017G23KT 18/M06 A3019 RMK A01 T01811060  RH  019%=      5-min Rain = 0
KFAS 152105Z 19018G23KT 18/M06 A3019 RMK A01 T01801060  RH  019%=      5-min Rain = 0
KFAS 152110Z 19018G23KT 18/M06 A3019 RMK A01 T01801060  RH  019%=      5-min Rain = 0
KFAS 152115Z 20017KT 18/M06 A3019 RMK A01 T01791060  RH  019%=      5-min Rain = 0
KFAS 152120Z 19018KT 18/M06 A3019 RMK A01 T01771060  RH  019%=      5-min Rain = 0
KFAS 152125Z 20019G25KT 18/M06 A3018 RMK A01 T01761061  RH  019%=      5-min Rain = 0
KFAS 152130Z 20017KT 18/M06 A3018 RMK A01 T01801059  RH  019%=      5-min Rain = 0
KFAS 152135Z 20017KT 18/M06 A3018 RMK A01 T01811058  RH  019%=      5-min Rain = 0
KFAS 152140Z 20017G23KT 18/M06 A3018 RMK A01 T01801060  RH  019%=      5-min Rain = 0
KFAS 152145Z 20019G24KT 18/M06 A3018 RMK A01 T01791062  RH  019%=      5-min Rain = 0
KFAS 152150Z 19017KT 18/M06 A3018 RMK A01 T01781058  RH  020%=      5-min Rain = 0
KFAS 152155Z 20018KT 18/M06 A3017 RMK A01 T01781058  RH  020%=      5-min Rain = 0
KFAS 152200Z 20017G22KT 18/M06 A3017 RMK A01 T01761059  RH  020%=      5-min Rain = 0
KFAS 152205Z 20017G23KT 17/M06 A3017 RMK A01 T01741058  RH  020%=      5-min Rain = 0
KFAS 152210Z 21015G21KT 17/M06 A3017 RMK A01 T01731057  RH  020%=      5-min Rain = 0
KFAS 152215Z 20018G23KT 17/M06 A3017 RMK A01 T01721061  RH  020%=      5-min Rain = 0
KFAS 152220Z 20017KT 17/M06 A3017 RMK A01 T01701061  RH  020%=      5-min Rain = 0
KFAS 152225Z 20016G22KT 17/M06 A3017 RMK A01 T01691059  RH  021%=      5-min Rain = 0
KFAS 152230Z 20015KT 17/M06 A3017 RMK A01 T01701058  RH  021%=      5-min Rain = 0
KFAS 152235Z 20016KT 17/M06 A3017 RMK A01 T01691055  RH  021%=      5-min Rain = 0
KFAS 152240Z 19016KT 17/M06 A3017 RMK A01 T01671058  RH  021%=      5-min Rain = 0
KFAS 152245Z 19015G20KT 16/M06 A3017 RMK A01 T01641056  RH  022%=      5-min Rain = 0
KFAS 152250Z 19015KT 16/M06 A3017 RMK A01 T01611057  RH  022%=      5-min Rain = 0
KFAS 152255Z 19014KT 16/M06 A3017 RMK A01 T01611055  RH  022%=      5-min Rain = 0
KFAS 152300Z 19015KT 16/M06 A3017 RMK A01 T01591057  RH  022%=      5-min Rain = 0
KFAS 152305Z 19013G18KT 16/M05 A3017 RMK A01 T01571054  RH  023%=      5-min Rain = 0
KFAS 152310Z 19013KT 16/M05 A3017 RMK A01 T01551052  RH  024%=      5-min Rain = 0
KFAS 152315Z 19012KT 15/M05 A3016 RMK A01 T01521051  RH  024%=      5-min Rain = 0
KFAS 152320Z 18013KT 15/M05 A3016 RMK A01 T01491051  RH  025%=      5-min Rain = 0
KFAS 152325Z 18014KT 15/M05 A3017 RMK A01 T01451051  RH  025%=      5-min Rain = 0
KFAS 152330Z 18013KT 14/M05 A3016 RMK A01 T01411050  RH  026%=      5-min Rain = 0
KFAS 152335Z 18012KT 14/M05 A3016 RMK A01 T01371049  RH  027%=      5-min Rain = 0
KFAS 152340Z 19012KT 13/M05 A3017 RMK A01 T01341049  RH  028%=      5-min Rain = 0
KFAS 152345Z 19012KT 13/M05 A3017 RMK A01 T01301049  RH  028%=      5-min Rain = 0
KFAS 152350Z 19011KT 13/M05 A3017 RMK A01 T01281049  RH  029%=      5-min Rain = 0
KFAS 152355Z 19011KT 12/M05 A3017 RMK A01 T01241049  RH  030%=      5-min Rain = 0
KFAS 160000Z 19011KT 12/M05 A3017 RMK A01 T01211048  RH  030%=      5-min Rain = 0
KFAS 160005Z 18011KT 12/M05 A3017 RMK A01 T01171049  RH  031%=      5-min Rain = 0
KFAS 160010Z 19011KT 12/M05 A3017 RMK A01 T01161049  RH  031%=      5-min Rain = 0
KFAS 160015Z 18011KT 11/M05 A3017 RMK A01 T01121049  RH  032%=      5-min Rain = 0
KFAS 160020Z 18011KT 11/M05 A3017 RMK A01 T01111050  RH  032%=      5-min Rain = 0
KFAS 160025Z 18010KT 11/M05 A3017 RMK A01 T01081050  RH  033%=      5-min Rain = 0
KFAS 160030Z 19011KT 11/M05 A3017 RMK A01 T01071050  RH  033%=      5-min Rain = 0
KFAS 160035Z 19011KT 11/M05 A3017 RMK A01 T01081049  RH  033%=      5-min Rain = 0
KFAS 160040Z 19010G15KT 11/M05 A3017 RMK A01 T01051048  RH  034%=      5-min Rain = 0
KFAS 160045Z 19010KT 10/M05 A3017 RMK A01 T01031047  RH  035%=      5-min Rain = 0
KFAS 160050Z 19010KT 10/M05 A3017 RMK A01 T01011046  RH  035%=      5-min Rain = 0
KFAS 160055Z 19010KT 10/M05 A3017 RMK A01 T00981045  RH  036%=      5-min Rain = 0
KFAS 160100Z 19011KT 10/M05 A3017 RMK A01 T00991045  RH  036%=      5-min Rain = 0
KFAS 160105Z 19011KT 10/M04 A3017 RMK A01 T00981043  RH  037%=      5-min Rain = 0
KFAS 160110Z 19011KT 10/M04 A3017 RMK A01 T00971043  RH  037%=      5-min Rain = 0
KFAS 160115Z 19011KT 10/M04 A3017 RMK A01 T00961043  RH  037%=      5-min Rain = 0
KFAS 160120Z 19012G17KT 10/M04 A3017 RMK A01 T00961044  RH  037%=      5-min Rain = 0
KFAS 160125Z 19012KT 10/M04 A3018 RMK A01 T00961044  RH  037%=      5-min Rain = 0
KFAS 160130Z 19012KT 09/M04 A3018 RMK A01 T00941043  RH  038%=      5-min Rain = 0
KFAS 160135Z 19012KT 09/M04 A3018 RMK A01 T00921042  RH  039%=      5-min Rain = 0
KFAS 160140Z 19012KT 09/M04 A3018 RMK A01 T00901042  RH  039%=      5-min Rain = 0
KFAS 160145Z 19012KT 09/M04 A3018 RMK A01 T00881042  RH  040%=      5-min Rain = 0
KFAS 160150Z 19012KT 09/M04 A3018 RMK A01 T00871043  RH  040%=      5-min Rain = 0
KFAS 160155Z 19012KT 09/M04 A3018 RMK A01 T00861042  RH  040%=      5-min Rain = 0
KFAS 160200Z 19012KT 09/M04 A3018 RMK A01 T00851042  RH  041%=      5-min Rain = 0
KFAS 160205Z 19012KT 08/M04 A3018 RMK A01 T00841043  RH  041%=      5-min Rain = 0
KFAS 160210Z 20011KT 08/M04 A3018 RMK A01 T00821042  RH  041%=      5-min Rain = 0
KFAS 160215Z 20010KT 08/M04 A3018 RMK A01 T00811043  RH  041%=      5-min Rain = 0
KFAS 160220Z 20009KT 08/M04 A3018 RMK A01 T00801043  RH  042%=      5-min Rain = 0
KFAS 160225Z 20010KT 08/M04 A3018 RMK A01 T00771042  RH  043%=      5-min Rain = 0
KFAS 160230Z 20010KT 08/M04 A3018 RMK A01 T00761042  RH  043%=      5-min Rain = 0
KFAS 160235Z 20011KT 08/M04 A3018 RMK A01 T00771042  RH  043%=      5-min Rain = 0
KFAS 160240Z 19012KT 08/M04 A3018 RMK A01 T00771040  RH  043%=      5-min Rain = 0
KFAS 160245Z 20012KT 08/M04 A3018 RMK A01 T00781040  RH  043%=      5-min Rain = 0
KFAS 160250Z 20011KT 08/M04 A3018 RMK A01 T00771039  RH  044%=      5-min Rain = 0
KFAS 160255Z 20012KT 08/M04 A3018 RMK A01 T00761038  RH  044%=      5-min Rain = 0
KFAS 160300Z 20012G17KT 08/M04 A3018 RMK A01 T00771037  RH  045%=      5-min Rain = 0
KFAS 160305Z 20012KT 08/M04 A3018 RMK A01 T00761037  RH  045%=      5-min Rain = 0
KFAS 160310Z 20013KT 08/M04 A3017 RMK A01 T00761036  RH  045%=      5-min Rain = 0
KFAS 160315Z 20012G17KT 08/M04 A3017 RMK A01 T00751035  RH  046%=      5-min Rain = 0
KFAS 160320Z 20012KT 07/M04 A3017 RMK A01 T00731035  RH  046%=      5-min Rain = 0
KFAS 160325Z 20012G17KT 07/M03 A3017 RMK A01 T00731034  RH  047%=      5-min Rain = 0
KFAS 160330Z 20012KT 07/M03 A3017 RMK A01 T00721034  RH  047%=      5-min Rain = 0
KFAS 160335Z 20012KT 07/M03 A3017 RMK A01 T00701033  RH  048%=      5-min Rain = 0
KFAS 160340Z 20013KT 07/M03 A3017 RMK A01 T00701033  RH  048%=      5-min Rain = 0
KFAS 160345Z 20012KT 07/M03 A3017 RMK A01 T00691032  RH  049%=      5-min Rain = 0
KFAS 160350Z 20010KT 07/M03 A3017 RMK A01 T00661032  RH  050%=      5-min Rain = 0
KFAS 160355Z 20011KT 07/M03 A3017 RMK A01 T00651031  RH  051%=      5-min Rain = 0
KFAS 160400Z 20012KT 07/M03 A3017 RMK A01 T00651031  RH  051%=      5-min Rain = 0
KFAS 160405Z 20011KT 06/M03 A3017 RMK A01 T00631030  RH  051%=      5-min Rain = 0
KFAS 160410Z 20011KT 06/M03 A3017 RMK A01 T00601030  RH  053%=      5-min Rain = 0
KFAS 160415Z 20011KT 06/M03 A3017 RMK A01 T00581030  RH  054%=      5-min Rain = 0
KFAS 160420Z 21011KT 06/M03 A3017 RMK A01 T00571029  RH  054%=      5-min Rain = 0
KFAS 160425Z 21011KT 06/M03 A3017 RMK A01 T00551029  RH  055%=      5-min Rain = 0
KFAS 160430Z 20011KT 06/M03 A3017 RMK A01 T00551029  RH  055%=      5-min Rain = 0
KFAS 160435Z 20011KT 05/M03 A3017 RMK A01 T00531028  RH  056%=      5-min Rain = 0
KFAS 160440Z 20011KT 05/M03 A3017 RMK A01 T00521027  RH  057%=      5-min Rain = 0
KFAS 160445Z 20011KT 05/M03 A3017 RMK A01 T00511026  RH  058%=      5-min Rain = 0
KFAS 160450Z 21011KT 05/M02 A3017 RMK A01 T00521024  RH  059%=      5-min Rain = 0
KFAS 160455Z 21010KT 05/M02 A3017 RMK A01 T00521023  RH  059%=      5-min Rain = 0
KFAS 160500Z 21011KT 05/M02 A3017 RMK A01 T00531022  RH  059%=      5-min Rain = 0
KFAS 160505Z 21010KT 05/M02 A3017 RMK A01 T00531022  RH  059%=      5-min Rain = 0
KFAS 160510Z 21009KT 05/M02 A3017 RMK A01 T00521021  RH  060%=      5-min Rain = 0
KFAS 160515Z 21010KT 05/M02 A3016 RMK A01 T00501021  RH  060%=      5-min Rain = 0
KFAS 160520Z 21011KT 05/M02 A3016 RMK A01 T00501021  RH  061%=      5-min Rain = 0
KFAS 160525Z 20011G16KT 05/M02 A3016 RMK A01 T00511020  RH  061%=      5-min Rain = 0
KFAS 160530Z 20011KT 05/M02 A3016 RMK A01 T00511018  RH  061%=      5-min Rain = 0
KFAS 160535Z 20011KT 05/M02 A3016 RMK A01 T00501018  RH  062%=      5-min Rain = 0
KFAS 160540Z 21011KT 05/M02 A3016 RMK A01 T00491017  RH  063%=      5-min Rain = 0
KFAS 160545Z 21011KT 05/M02 A3016 RMK A01 T00501017  RH  062%=      5-min Rain = 0
KFAS 160550Z 20011KT 05/M02 A3015 RMK A01 T00511016  RH  062%=      5-min Rain = 0
KFAS 160555Z 20011KT 05/M02 A3015 RMK A01 T00501016  RH  063%=      5-min Rain = 0

Page generated in 0.0153 seconds.